createdAt,value
2018-11-21T00:01:47.315Z,3.27
2018-11-21T00:05:54.888Z,3.27
2018-11-21T00:10:03.458Z,3.29
2018-11-21T00:14:09.831Z,3.19
2018-11-21T00:18:15.253Z,3.12
2018-11-21T00:22:20.815Z,3.05
2018-11-21T00:26:28.272Z,3.12
2018-11-21T00:30:33.839Z,3.08
2018-11-21T00:34:39.313Z,3.13
2018-11-21T00:38:44.885Z,3.06
2018-11-21T00:42:50.431Z,3.07
2018-11-21T00:46:55.980Z,2.96
2018-11-21T00:51:01.551Z,3.01
2018-11-21T00:55:08.124Z,2.94
2018-11-21T00:59:13.639Z,3.03
2018-11-21T01:03:19.204Z,3.00
2018-11-21T01:07:24.752Z,2.89
2018-11-21T01:11:40.517Z,2.87
2018-11-21T01:15:46.489Z,2.88
2018-11-21T01:19:52.063Z,2.80
2018-11-21T01:23:57.588Z,2.72
2018-11-21T01:28:03.232Z,2.74
2018-11-21T01:32:08.833Z,2.67
2018-11-21T01:36:14.460Z,2.62
2018-11-21T01:40:20.081Z,2.68
2018-11-21T01:44:25.574Z,2.63
2018-11-21T01:48:31.155Z,2.50
2018-11-21T01:52:36.790Z,2.47
2018-11-21T01:56:42.330Z,2.47
2018-11-21T02:00:48.144Z,2.39
2018-11-21T02:04:53.705Z,2.42
2018-11-21T02:08:59.220Z,2.39
2018-11-21T02:13:04.780Z,2.38
2018-11-21T02:17:10.265Z,2.41
2018-11-21T02:21:15.924Z,2.35
2018-11-21T02:25:21.336Z,2.25
2018-11-21T02:29:26.808Z,2.19
2018-11-21T02:33:32.296Z,2.23
2018-11-21T02:37:37.847Z,2.25
2018-11-21T02:41:43.371Z,2.22
2018-11-21T02:45:48.920Z,2.17
2018-11-21T02:49:54.453Z,2.12
2018-11-21T02:53:59.963Z,2.04
2018-11-21T02:58:05.878Z,2.07
2018-11-21T03:02:11.476Z,2.02
2018-11-21T03:06:17.014Z,1.96
2018-11-21T03:10:23.464Z,2.17
2018-11-21T03:14:28.905Z,1.98
2018-11-21T03:18:34.365Z,1.94
2018-11-21T03:22:40.109Z,1.83
2018-11-21T03:26:45.601Z,1.71
2018-11-21T03:30:51.075Z,1.74
2018-11-21T03:34:56.572Z,1.70
2018-11-21T03:39:02.136Z,1.73
2018-11-21T03:43:07.795Z,1.79
2018-11-21T03:47:13.346Z,1.83
2018-11-21T03:51:18.942Z,1.62
2018-11-21T03:55:24.460Z,1.65
2018-11-21T03:59:30.051Z,1.66
2018-11-21T04:03:35.746Z,1.56
2018-11-21T04:07:41.209Z,1.54
2018-11-21T04:11:46.726Z,1.48
2018-11-21T04:15:52.308Z,1.34
2018-11-21T04:19:57.730Z,1.50
2018-11-21T04:24:03.286Z,1.26
2018-11-21T04:28:08.863Z,1.35
2018-11-21T04:32:14.397Z,1.37
2018-11-21T04:36:19.950Z,1.36
2018-11-21T04:40:25.448Z,1.34
2018-11-21T04:44:31.078Z,1.30
2018-11-21T04:48:36.885Z,1.29
2018-11-21T04:52:42.454Z,1.27
2018-11-21T04:56:47.979Z,1.31
2018-11-21T05:00:53.486Z,1.27
2018-11-21T05:04:59.052Z,1.29
2018-11-21T05:09:06.898Z,1.31
2018-11-21T05:13:12.516Z,1.29
2018-11-21T05:17:17.976Z,1.32
2018-11-21T05:21:23.516Z,1.29
2018-11-21T05:25:29.153Z,1.18
2018-11-21T05:29:34.736Z,1.11
2018-11-21T05:33:40.322Z,1.25
2018-11-21T05:37:45.925Z,1.47
2018-11-21T05:41:51.584Z,1.33
2018-11-21T05:45:57.382Z,1.42
2018-11-21T05:50:04.111Z,1.48
2018-11-21T05:54:09.729Z,1.51
2018-11-21T05:58:15.250Z,1.55
2018-11-21T06:02:21.057Z,1.63
2018-11-21T06:06:26.654Z,1.85
2018-11-21T06:10:32.384Z,1.71
2018-11-21T06:14:40.859Z,1.66
2018-11-21T06:18:46.387Z,1.72
2018-11-21T06:22:51.919Z,1.87
2018-11-21T06:26:59.821Z,1.76
2018-11-21T06:31:05.531Z,1.97
2018-11-21T06:35:12.060Z,2.29
2018-11-21T06:39:18.360Z,2.27
2018-11-21T06:43:24.087Z,1.85
2018-11-21T06:47:29.803Z,1.86
2018-11-21T06:51:43.829Z,1.88
2018-11-21T06:55:47.672Z,1.67
2018-11-21T06:59:53.339Z,1.68
2018-11-21T07:03:58.924Z,1.72
2018-11-21T07:08:04.797Z,1.70
2018-11-21T07:12:31.654Z,3.10
2018-11-21T07:16:38.608Z,3.18
2018-11-21T07:20:44.770Z,2.77
2018-11-21T07:24:50.430Z,2.16
2018-11-21T07:28:56.053Z,2.27
2018-11-21T07:33:02.162Z,2.23
2018-11-21T07:37:07.776Z,2.18
2018-11-21T07:41:16.396Z,2.23
2018-11-21T07:45:23.697Z,2.27
2018-11-21T07:49:28.532Z,2.27
2018-11-21T07:53:34.417Z,2.32
2018-11-21T07:57:41.648Z,2.43
2018-11-21T08:01:55.730Z,2.41
2018-11-21T08:06:07.043Z,2.26
2018-11-21T08:10:39.185Z,2.31
2018-11-21T08:15:02.790Z,2.37
2018-11-21T08:19:28.365Z,2.51
2018-11-21T08:23:55.554Z,2.64
2018-11-21T08:28:18.854Z,2.57
2018-11-21T08:32:24.944Z,2.69
2018-11-21T08:36:30.820Z,2.84
2018-11-21T08:40:39.219Z,2.69
2018-11-21T08:44:47.721Z,2.84
2018-11-21T08:49:04.351Z,2.88
2018-11-21T08:53:13.593Z,2.98
2018-11-21T08:57:19.939Z,3.00
2018-11-21T09:01:25.585Z,2.88
2018-11-21T09:05:31.590Z,3.14
2018-11-21T09:09:37.333Z,3.15
2018-11-21T09:13:43.078Z,3.17
2018-11-21T09:17:51.326Z,3.28
2018-11-21T09:21:54.940Z,3.25
2018-11-21T09:26:02.631Z,3.34
2018-11-21T09:30:12.490Z,3.34
2018-11-21T09:34:20.754Z,3.28
2018-11-21T09:38:26.569Z,3.34
2018-11-21T09:42:32.629Z,3.26
2018-11-21T09:46:38.121Z,3.46
2018-11-21T09:50:43.764Z,3.52
2018-11-21T09:54:49.341Z,3.48
2018-11-21T09:58:54.959Z,3.47
2018-11-21T10:03:19.587Z,3.70
2018-11-21T10:07:25.104Z,3.77
2018-11-21T10:11:32.108Z,3.88
2018-11-21T10:15:37.851Z,3.85
2018-11-21T10:19:43.569Z,4.02
2018-11-21T10:23:49.544Z,3.73
2018-11-21T10:27:55.130Z,3.73
2018-11-21T10:32:00.818Z,4.07
2018-11-21T10:36:09.895Z,4.09
2018-11-21T10:40:15.614Z,4.18
2018-11-21T10:44:21.280Z,4.14
2018-11-21T10:48:26.923Z,4.34
2018-11-21T10:52:32.811Z,4.08
2018-11-21T10:56:38.425Z,4.34
2018-11-21T11:01:02.206Z,4.15
2018-11-21T11:05:25.673Z,4.20
2018-11-21T11:09:50.412Z,4.11
2018-11-21T11:14:13.911Z,4.35
2018-11-21T11:18:30.554Z,4.45
2018-11-21T11:22:54.327Z,4.53
2018-11-21T11:27:17.646Z,4.56
2018-11-21T11:31:30.803Z,4.54
2018-11-21T11:36:07.626Z,4.61
2018-11-21T11:40:30.614Z,4.66
2018-11-21T11:44:53.867Z,4.23
2018-11-21T11:49:21.297Z,4.31
2018-11-21T11:53:37.382Z,4.39
2018-11-21T11:57:52.054Z,4.48
2018-11-21T12:02:36.901Z,4.42
2018-11-21T12:07:16.904Z,4.50
2018-11-21T12:12:04.782Z,4.50
2018-11-21T12:16:43.868Z,4.66
2018-11-21T12:21:08.802Z,4.50
2018-11-21T12:25:39.337Z,4.42
2018-11-21T12:30:04.353Z,4.47
2018-11-21T12:34:44.018Z,4.62
2018-11-21T12:39:14.407Z,4.72
2018-11-21T12:43:48.018Z,4.50
2018-11-21T12:48:12.737Z,4.55
2018-11-21T12:52:27.909Z,4.58
2018-11-21T12:56:44.038Z,4.77
2018-11-21T13:01:23.740Z,4.54
2018-11-21T13:05:47.178Z,4.57
2018-11-21T13:10:26.894Z,4.45
2018-11-21T13:15:00.882Z,4.30
2018-11-21T13:19:34.325Z,4.31
2018-11-21T13:23:58.076Z,4.38
2018-11-21T13:28:20.726Z,4.47
2018-11-21T13:32:51.236Z,4.40
2018-11-21T13:37:18.297Z,4.35
2018-11-21T13:41:40.067Z,4.36
2018-11-21T13:46:07.420Z,4.42
2018-11-21T13:50:44.063Z,4.41
2018-11-21T13:54:48.849Z,4.59
2018-11-21T13:58:54.568Z,4.58
2018-11-21T14:03:00.336Z,4.74
2018-11-21T14:07:06.970Z,4.71
2018-11-21T14:11:12.799Z,4.68
2018-11-21T14:15:20.353Z,4.83
2018-11-21T14:19:24.344Z,4.74
2018-11-21T14:23:30.272Z,4.62
2018-11-21T14:27:39.991Z,4.77
2018-11-21T14:31:46.567Z,4.92
2018-11-21T14:35:55.977Z,4.72
2018-11-21T14:39:58.062Z,4.76
2018-11-21T14:44:04.172Z,4.84
2018-11-21T14:48:12.306Z,4.79
2018-11-21T14:52:18.109Z,4.73
2018-11-21T14:57:12.437Z,4.79
2018-11-21T15:01:20.254Z,4.78
2018-11-21T15:05:29.274Z,4.75
2018-11-21T15:09:37.199Z,4.67
2018-11-21T15:13:44.981Z,4.67
2018-11-21T15:17:52.785Z,4.76
2018-11-21T15:22:00.443Z,4.73
2018-11-21T15:26:08.454Z,4.80
2018-11-21T15:30:22.617Z,4.67
2018-11-21T15:34:30.504Z,5.18
2018-11-21T15:38:38.448Z,4.99
2018-11-21T15:42:46.059Z,5.05
2018-11-21T15:46:53.760Z,5.24
2018-11-21T15:51:01.787Z,4.69
2018-11-21T15:55:11.878Z,4.58
2018-11-21T15:59:19.665Z,4.52
2018-11-21T16:03:27.651Z,4.48
2018-11-21T16:07:35.307Z,4.36
2018-11-21T16:11:43.620Z,4.32
2018-11-21T16:15:59.933Z,4.31
2018-11-21T16:20:09.933Z,4.42
2018-11-21T16:24:17.839Z,4.34
2018-11-21T16:28:25.686Z,4.30
2018-11-21T16:32:33.919Z,4.23
2018-11-21T16:36:42.298Z,4.30
2018-11-21T16:40:50.422Z,4.35
2018-11-21T16:44:58.210Z,4.39
2018-11-21T16:49:07.509Z,4.38
2018-11-21T16:53:15.624Z,4.38
2018-11-21T16:57:23.529Z,4.40
2018-11-21T17:01:31.824Z,4.44
2018-11-21T17:05:39.839Z,4.45
2018-11-21T17:09:47.937Z,4.41
2018-11-21T17:13:56.201Z,4.48
2018-11-21T17:18:04.154Z,4.39
2018-11-21T17:22:13.472Z,4.34
2018-11-21T17:26:21.691Z,4.33
2018-11-21T17:30:30.611Z,4.31
2018-11-21T17:34:38.758Z,4.40
2018-11-21T17:39:08.149Z,4.40
2018-11-21T17:43:21.633Z,4.40
2018-11-21T17:47:33.361Z,4.43
2018-11-21T17:51:52.738Z,4.41
2018-11-21T17:56:01.809Z,4.48
2018-11-21T18:00:16.854Z,4.41
2018-11-21T18:04:32.527Z,4.48
2018-11-21T18:08:42.903Z,4.43
2018-11-21T18:12:59.924Z,4.39
2018-11-21T18:17:11.677Z,4.45
2018-11-21T18:21:25.388Z,4.45
2018-11-21T18:25:38.071Z,4.56
2018-11-21T18:29:45.989Z,4.59
2018-11-21T18:33:57.877Z,4.53
2018-11-21T18:38:11.558Z,4.58
2018-11-21T18:42:22.075Z,4.36
2018-11-21T18:46:34.166Z,4.41
2018-11-21T18:50:42.058Z,4.55
2018-11-21T18:55:08.015Z,4.44
2018-11-21T19:00:42.372Z,4.46
2018-11-21T19:04:58.479Z,4.67
2018-11-21T19:09:30.014Z,4.61
2018-11-21T19:13:58.445Z,4.65
2018-11-21T19:18:08.447Z,4.64
2018-11-21T19:22:16.050Z,4.51
2018-11-21T19:26:24.134Z,4.50
2018-11-21T19:30:31.976Z,4.39
2018-11-21T19:34:39.563Z,4.45
2018-11-21T19:38:47.948Z,4.49
2018-11-21T19:42:55.757Z,4.47
2018-11-21T19:47:06.316Z,4.40
2018-11-21T19:51:13.974Z,4.42
2018-11-21T19:55:29.193Z,4.44
2018-11-21T19:59:36.782Z,4.51
2018-11-21T20:03:44.403Z,4.36
2018-11-21T20:07:52.098Z,4.39
2018-11-21T20:12:02.016Z,4.34
2018-11-21T20:16:12.474Z,4.45
2018-11-21T20:20:22.173Z,4.47
2018-11-21T20:24:30.739Z,4.45
2018-11-21T20:28:38.311Z,4.44
2018-11-21T20:32:46.137Z,4.53
2018-11-21T20:36:53.735Z,4.50
2018-11-21T20:41:01.421Z,4.44
2018-11-21T20:45:17.913Z,4.48
2018-11-21T20:49:25.469Z,4.44
2018-11-21T20:53:35.521Z,4.41
2018-11-21T20:57:44.048Z,4.47
2018-11-21T21:01:52.609Z,4.39
2018-11-21T21:06:00.359Z,4.39
2018-11-21T21:10:10.533Z,4.40
2018-11-21T21:14:18.223Z,4.45
2018-11-21T21:18:25.812Z,4.37
2018-11-21T21:22:33.804Z,4.33
2018-11-21T21:26:41.450Z,4.38
2018-11-21T21:30:49.055Z,4.36
2018-11-21T21:34:57.343Z,4.38
2018-11-21T21:39:05.663Z,4.38
2018-11-21T21:43:13.180Z,4.27
2018-11-21T21:47:21.012Z,4.41
2018-11-21T21:51:28.814Z,4.29
2018-11-21T21:55:36.368Z,4.33
2018-11-21T21:59:44.157Z,4.76
2018-11-21T22:03:51.685Z,4.37
2018-11-21T22:07:59.879Z,4.37
2018-11-21T22:12:07.814Z,4.31
2018-11-21T22:16:15.389Z,4.31
2018-11-21T22:20:23.080Z,4.38
2018-11-21T22:24:31.412Z,4.34
2018-11-21T22:28:38.876Z,4.31
2018-11-21T22:32:48.015Z,4.29
2018-11-21T22:36:55.434Z,4.45
2018-11-21T22:41:03.020Z,4.47
2018-11-21T22:45:21.700Z,4.42
2018-11-21T22:49:29.247Z,4.40
2018-11-21T22:53:37.086Z,4.43
2018-11-21T22:57:45.228Z,4.42
2018-11-21T23:01:52.704Z,4.31
2018-11-21T23:06:00.234Z,4.34
2018-11-21T23:10:10.183Z,4.34
2018-11-21T23:14:17.747Z,4.29
2018-11-21T23:18:25.739Z,4.24
2018-11-21T23:22:33.454Z,4.22
2018-11-21T23:26:40.856Z,4.38
2018-11-21T23:30:48.270Z,4.19
2018-11-21T23:34:56.678Z,4.20
2018-11-21T23:39:06.751Z,4.38
2018-11-21T23:43:14.229Z,4.27
2018-11-21T23:47:21.606Z,4.27
2018-11-21T23:51:29.042Z,4.26
2018-11-21T23:55:36.508Z,4.18
2018-11-21T23:59:43.943Z,4.22
